sensor_id;sensor_type;location;lat;lon;timestamp;P1;durP1;ratioP1;P2;durP2;ratioP2
3865;SDS011;1948;53.250;10.412;2023-05-16T00:01:51;4.83;;;4.30;;
3865;SDS011;1948;53.250;10.412;2023-05-16T00:04:19;5.20;;;4.70;;
3865;SDS011;1948;53.250;10.412;2023-05-16T00:06:48;4.03;;;3.60;;
3865;SDS011;1948;53.250;10.412;2023-05-16T00:09:15;7.43;;;4.10;;
3865;SDS011;1948;53.250;10.412;2023-05-16T00:11:43;5.83;;;3.70;;
3865;SDS011;1948;53.250;10.412;2023-05-16T00:14:13;4.90;;;3.80;;
3865;SDS011;1948;53.250;10.412;2023-05-16T00:16:40;4.13;;;3.73;;
3865;SDS011;1948;53.250;10.412;2023-05-16T00:19:07;4.03;;;3.57;;
3865;SDS011;1948;53.250;10.412;2023-05-16T00:21:35;10.20;;;3.87;;
3865;SDS011;1948;53.250;10.412;2023-05-16T00:24:02;4.43;;;4.00;;
3865;SDS011;1948;53.250;10.412;2023-05-16T00:26:31;4.60;;;3.80;;
3865;SDS011;1948;53.250;10.412;2023-05-16T00:29:00;4.23;;;3.90;;
3865;SDS011;1948;53.250;10.412;2023-05-16T00:31:29;4.93;;;4.47;;
3865;SDS011;1948;53.250;10.412;2023-05-16T00:33:56;6.20;;;3.67;;
3865;SDS011;1948;53.250;10.412;2023-05-16T00:36:26;6.17;;;3.80;;
3865;SDS011;1948;53.250;10.412;2023-05-16T00:38:54;7.90;;;4.33;;
3865;SDS011;1948;53.250;10.412;2023-05-16T00:41:21;10.13;;;3.70;;
3865;SDS011;1948;53.250;10.412;2023-05-16T00:43:53;8.63;;;3.73;;
3865;SDS011;1948;53.250;10.412;2023-05-16T00:46:25;5.67;;;3.47;;
3865;SDS011;1948;53.250;10.412;2023-05-16T00:48:52;8.13;;;4.27;;
3865;SDS011;1948;53.250;10.412;2023-05-16T00:51:19;17.07;;;4.37;;
3865;SDS011;1948;53.250;10.412;2023-05-16T00:53:46;4.47;;;3.40;;
3865;SDS011;1948;53.250;10.412;2023-05-16T00:56:14;3.87;;;3.53;;
3865;SDS011;1948;53.250;10.412;2023-05-16T00:58:42;6.10;;;3.60;;
3865;SDS011;1948;53.250;10.412;2023-05-16T01:01:09;3.70;;;3.50;;
3865;SDS011;1948;53.250;10.412;2023-05-16T01:03:37;10.73;;;3.30;;
3865;SDS011;1948;53.250;10.412;2023-05-16T01:06:05;5.37;;;2.80;;
3865;SDS011;1948;53.250;10.412;2023-05-16T01:08:32;6.33;;;3.10;;
3865;SDS011;1948;53.250;10.412;2023-05-16T01:11:02;7.23;;;2.83;;
3865;SDS011;1948;53.250;10.412;2023-05-16T01:17:09;7.30;;;2.67;;
3865;SDS011;1948;53.250;10.412;2023-05-16T01:22:51;8.73;;;3.30;;
3865;SDS011;1948;53.250;10.412;2023-05-16T01:28:42;5.10;;;2.87;;
3865;SDS011;1948;53.250;10.412;2023-05-16T01:31:12;10.77;;;3.20;;
3865;SDS011;1948;53.250;10.412;2023-05-16T01:33:39;5.83;;;2.40;;
3865;SDS011;1948;53.250;10.412;2023-05-16T01:41:30;6.10;;;4.30;;
3865;SDS011;1948;53.250;10.412;2023-05-16T01:44:04;7.40;;;3.53;;
3865;SDS011;1948;53.250;10.412;2023-05-16T01:46:42;5.13;;;4.03;;
3865;SDS011;1948;53.250;10.412;2023-05-16T01:49:21;13.10;;;3.97;;
3865;SDS011;1948;53.250;10.412;2023-05-16T01:51:59;5.90;;;3.67;;
3865;SDS011;1948;53.250;10.412;2023-05-16T01:54:37;5.60;;;4.10;;
3865;SDS011;1948;53.250;10.412;2023-05-16T01:57:12;6.33;;;4.03;;
3865;SDS011;1948;53.250;10.412;2023-05-16T01:59:41;5.80;;;3.57;;
3865;SDS011;1948;53.250;10.412;2023-05-16T02:02:12;4.70;;;4.20;;
3865;SDS011;1948;53.250;10.412;2023-05-16T02:04:40;3.80;;;3.43;;
3865;SDS011;1948;53.250;10.412;2023-05-16T02:07:07;3.90;;;3.60;;
3865;SDS011;1948;53.250;10.412;2023-05-16T02:09:34;6.90;;;3.70;;
3865;SDS011;1948;53.250;10.412;2023-05-16T02:12:01;13.60;;;3.70;;
3865;SDS011;1948;53.250;10.412;2023-05-16T02:14:29;3.33;;;2.97;;
3865;SDS011;1948;53.250;10.412;2023-05-16T02:16:56;3.40;;;3.00;;
3865;SDS011;1948;53.250;10.412;2023-05-16T02:19:23;5.03;;;2.87;;
3865;SDS011;1948;53.250;10.412;2023-05-16T02:21:50;3.90;;;3.23;;
3865;SDS011;1948;53.250;10.412;2023-05-16T02:24:20;3.60;;;2.67;;
3865;SDS011;1948;53.250;10.412;2023-05-16T02:26:47;5.13;;;2.50;;
3865;SDS011;1948;53.250;10.412;2023-05-16T02:29:14;7.53;;;3.40;;
3865;SDS011;1948;53.250;10.412;2023-05-16T02:31:44;3.07;;;2.77;;
3865;SDS011;1948;53.250;10.412;2023-05-16T02:34:13;4.47;;;2.40;;
3865;SDS011;1948;53.250;10.412;2023-05-16T02:36:42;5.83;;;2.87;;
3865;SDS011;1948;53.250;10.412;2023-05-16T02:39:09;8.90;;;2.57;;
3865;SDS011;1948;53.250;10.412;2023-05-16T02:41:36;12.03;;;2.93;;
3865;SDS011;1948;53.250;10.412;2023-05-16T02:44:03;5.53;;;2.50;;
3865;SDS011;1948;53.250;10.412;2023-05-16T02:49:18;5.90;;;2.80;;
3865;SDS011;1948;53.250;10.412;2023-05-16T02:51:47;6.40;;;3.40;;
3865;SDS011;1948;53.250;10.412;2023-05-16T02:54:14;12.10;;;3.80;;
3865;SDS011;1948;53.250;10.412;2023-05-16T02:56:41;7.77;;;3.83;;
3865;SDS011;1948;53.250;10.412;2023-05-16T02:59:10;3.80;;;3.47;;
3865;SDS011;1948;53.250;10.412;2023-05-16T03:01:38;5.10;;;4.17;;
3865;SDS011;1948;53.250;10.412;2023-05-16T03:04:05;11.33;;;4.40;;
3865;SDS011;1948;53.250;10.412;2023-05-16T03:06:32;13.07;;;3.97;;
3865;SDS011;1948;53.250;10.412;2023-05-16T03:09:02;12.60;;;4.03;;
3865;SDS011;1948;53.250;10.412;2023-05-16T03:11:29;12.43;;;4.40;;
3865;SDS011;1948;53.250;10.412;2023-05-16T03:13:56;7.33;;;3.43;;
3865;SDS011;1948;53.250;10.412;2023-05-16T03:16:27;18.07;;;3.50;;
3865;SDS011;1948;53.250;10.412;2023-05-16T03:18:54;12.43;;;3.70;;
3865;SDS011;1948;53.250;10.412;2023-05-16T03:21:22;9.07;;;3.70;;
3865;SDS011;1948;53.250;10.412;2023-05-16T03:23:49;10.57;;;3.70;;
3865;SDS011;1948;53.250;10.412;2023-05-16T03:26:16;16.03;;;3.97;;
3865;SDS011;1948;53.250;10.412;2023-05-16T03:28:46;14.73;;;4.47;;
3865;SDS011;1948;53.250;10.412;2023-05-16T03:31:16;7.57;;;3.27;;
3865;SDS011;1948;53.250;10.412;2023-05-16T03:33:43;15.00;;;3.53;;
3865;SDS011;1948;53.250;10.412;2023-05-16T03:36:10;10.70;;;3.20;;
3865;SDS011;1948;53.250;10.412;2023-05-16T03:38:37;22.60;;;3.40;;
3865;SDS011;1948;53.250;10.412;2023-05-16T03:41:07;12.30;;;3.33;;
3865;SDS011;1948;53.250;10.412;2023-05-16T03:43:34;9.73;;;2.60;;
3865;SDS011;1948;53.250;10.412;2023-05-16T03:46:04;9.17;;;2.90;;
3865;SDS011;1948;53.250;10.412;2023-05-16T03:48:31;14.50;;;2.37;;
3865;SDS011;1948;53.250;10.412;2023-05-16T03:51:01;8.90;;;2.40;;
3865;SDS011;1948;53.250;10.412;2023-05-16T03:53:28;10.13;;;2.10;;
3865;SDS011;1948;53.250;10.412;2023-05-16T03:55:55;10.20;;;2.10;;
3865;SDS011;1948;53.250;10.412;2023-05-16T03:58:24;10.63;;;2.50;;
3865;SDS011;1948;53.250;10.412;2023-05-16T04:00:52;11.93;;;2.47;;
3865;SDS011;1948;53.250;10.412;2023-05-16T04:03:21;9.30;;;2.60;;
3865;SDS011;1948;53.250;10.412;2023-05-16T04:05:54;18.97;;;3.20;;
3865;SDS011;1948;53.250;10.412;2023-05-16T04:08:25;13.67;;;2.63;;
3865;SDS011;1948;53.250;10.412;2023-05-16T04:10:52;17.33;;;3.43;;
3865;SDS011;1948;53.250;10.412;2023-05-16T04:13:22;27.00;;;3.07;;
3865;SDS011;1948;53.250;10.412;2023-05-16T04:15:52;11.03;;;2.17;;
3865;SDS011;1948;53.250;10.412;2023-05-16T04:18:19;8.43;;;2.30;;
3865;SDS011;1948;53.250;10.412;2023-05-16T04:20:48;11.33;;;2.43;;
3865;SDS011;1948;53.250;10.412;2023-05-16T04:23:15;10.87;;;2.20;;
3865;SDS011;1948;53.250;10.412;2023-05-16T04:25:47;9.93;;;2.40;;
3865;SDS011;1948;53.250;10.412;2023-05-16T04:28:14;21.23;;;3.03;;
3865;SDS011;1948;53.250;10.412;2023-05-16T04:30:43;11.13;;;2.50;;
3865;SDS011;1948;53.250;10.412;2023-05-16T04:33:13;17.47;;;3.00;;
3865;SDS011;1948;53.250;10.412;2023-05-16T04:35:44;8.93;;;2.70;;
3865;SDS011;1948;53.250;10.412;2023-05-16T04:38:15;12.27;;;2.50;;
3865;SDS011;1948;53.250;10.412;2023-05-16T04:40:42;15.03;;;2.70;;
3865;SDS011;1948;53.250;10.412;2023-05-16T04:43:11;14.70;;;4.30;;
3865;SDS011;1948;53.250;10.412;2023-05-16T04:45:39;19.13;;;3.80;;
3865;SDS011;1948;53.250;10.412;2023-05-16T04:48:08;9.30;;;2.37;;
3865;SDS011;1948;53.250;10.412;2023-05-16T04:50:35;15.03;;;2.83;;
3865;SDS011;1948;53.250;10.412;2023-05-16T04:53:03;27.00;;;3.33;;
3865;SDS011;1948;53.250;10.412;2023-05-16T04:55:32;11.03;;;2.77;;
3865;SDS011;1948;53.250;10.412;2023-05-16T04:58:01;11.40;;;3.57;;
3865;SDS011;1948;53.250;10.412;2023-05-16T05:00:29;22.03;;;3.23;;
3865;SDS011;1948;53.250;10.412;2023-05-16T05:02:56;12.37;;;2.73;;
3865;SDS011;1948;53.250;10.412;2023-05-16T05:05:23;28.90;;;3.70;;
3865;SDS011;1948;53.250;10.412;2023-05-16T05:07:50;28.30;;;3.70;;
3865;SDS011;1948;53.250;10.412;2023-05-16T05:10:17;26.30;;;3.20;;
3865;SDS011;1948;53.250;10.412;2023-05-16T05:12:47;28.63;;;3.40;;
3865;SDS011;1948;53.250;10.412;2023-05-16T05:15:14;26.80;;;3.20;;
3865;SDS011;1948;53.250;10.412;2023-05-16T05:17:41;42.60;;;3.53;;
3865;SDS011;1948;53.250;10.412;2023-05-16T05:20:08;20.63;;;2.70;;
3865;SDS011;1948;53.250;10.412;2023-05-16T05:22:36;21.83;;;3.33;;
3865;SDS011;1948;53.250;10.412;2023-05-16T05:25:04;24.23;;;2.60;;
3865;SDS011;1948;53.250;10.412;2023-05-16T05:27:36;11.60;;;2.70;;
3865;SDS011;1948;53.250;10.412;2023-05-16T05:30:08;18.03;;;3.07;;
3865;SDS011;1948;53.250;10.412;2023-05-16T05:32:37;14.63;;;3.00;;
3865;SDS011;1948;53.250;10.412;2023-05-16T05:35:07;8.60;;;2.70;;
3865;SDS011;1948;53.250;10.412;2023-05-16T05:37:37;22.27;;;2.60;;
3865;SDS011;1948;53.250;10.412;2023-05-16T05:40:04;22.50;;;2.97;;
3865;SDS011;1948;53.250;10.412;2023-05-16T05:42:32;20.70;;;3.37;;
3865;SDS011;1948;53.250;10.412;2023-05-16T05:44:59;13.53;;;2.30;;
3865;SDS011;1948;53.250;10.412;2023-05-16T05:47:26;27.10;;;2.73;;
3865;SDS011;1948;53.250;10.412;2023-05-16T05:49:56;20.87;;;3.40;;
3865;SDS011;1948;53.250;10.412;2023-05-16T05:52:26;23.07;;;3.37;;
3865;SDS011;1948;53.250;10.412;2023-05-16T05:54:53;17.23;;;2.87;;
3865;SDS011;1948;53.250;10.412;2023-05-16T05:57:20;12.43;;;3.30;;
3865;SDS011;1948;53.250;10.412;2023-05-16T05:59:47;13.97;;;2.70;;
3865;SDS011;1948;53.250;10.412;2023-05-16T06:02:15;19.30;;;2.97;;
3865;SDS011;1948;53.250;10.412;2023-05-16T06:04:42;14.57;;;2.30;;
3865;SDS011;1948;53.250;10.412;2023-05-16T06:07:10;29.33;;;3.70;;
3865;SDS011;1948;53.250;10.412;2023-05-16T06:09:38;18.87;;;3.17;;
3865;SDS011;1948;53.250;10.412;2023-05-16T06:12:05;15.53;;;2.63;;
3865;SDS011;1948;53.250;10.412;2023-05-16T06:14:38;13.33;;;2.07;;
3865;SDS011;1948;53.250;10.412;2023-05-16T06:17:05;10.73;;;2.70;;
3865;SDS011;1948;53.250;10.412;2023-05-16T06:19:32;22.60;;;3.90;;
3865;SDS011;1948;53.250;10.412;2023-05-16T06:22:06;14.17;;;2.20;;
3865;SDS011;1948;53.250;10.412;2023-05-16T06:24:36;13.70;;;2.50;;
3865;SDS011;1948;53.250;10.412;2023-05-16T06:27:03;23.80;;;3.70;;
3865;SDS011;1948;53.250;10.412;2023-05-16T06:29:31;11.30;;;2.43;;
3865;SDS011;1948;53.250;10.412;2023-05-16T06:31:58;19.90;;;2.40;;
3865;SDS011;1948;53.250;10.412;2023-05-16T06:34:25;13.20;;;2.23;;
3865;SDS011;1948;53.250;10.412;2023-05-16T06:36:54;11.10;;;2.93;;
3865;SDS011;1948;53.250;10.412;2023-05-16T06:39:24;17.47;;;2.60;;
3865;SDS011;1948;53.250;10.412;2023-05-16T06:41:51;18.83;;;3.03;;
3865;SDS011;1948;53.250;10.412;2023-05-16T06:44:22;20.40;;;2.87;;
3865;SDS011;1948;53.250;10.412;2023-05-16T06:46:52;12.93;;;2.17;;
3865;SDS011;1948;53.250;10.412;2023-05-16T06:49:23;10.10;;;2.10;;
3865;SDS011;1948;53.250;10.412;2023-05-16T06:51:52;10.50;;;2.03;;
3865;SDS011;1948;53.250;10.412;2023-05-16T06:54:21;10.40;;;2.00;;
3865;SDS011;1948;53.250;10.412;2023-05-16T06:56:50;23.43;;;2.27;;
3865;SDS011;1948;53.250;10.412;2023-05-16T06:59:20;10.87;;;1.80;;
3865;SDS011;1948;53.250;10.412;2023-05-16T07:01:47;11.87;;;2.10;;
3865;SDS011;1948;53.250;10.412;2023-05-16T07:04:18;16.13;;;1.80;;
3865;SDS011;1948;53.250;10.412;2023-05-16T07:06:45;8.90;;;2.07;;
3865;SDS011;1948;53.250;10.412;2023-05-16T07:09:12;5.87;;;1.90;;
3865;SDS011;1948;53.250;10.412;2023-05-16T07:11:39;9.63;;;2.20;;
3865;SDS011;1948;53.250;10.412;2023-05-16T07:14:09;21.07;;;2.40;;
3865;SDS011;1948;53.250;10.412;2023-05-16T07:16:39;16.63;;;2.33;;
3865;SDS011;1948;53.250;10.412;2023-05-16T07:19:06;14.07;;;2.23;;
3865;SDS011;1948;53.250;10.412;2023-05-16T07:21:33;11.17;;;2.47;;
3865;SDS011;1948;53.250;10.412;2023-05-16T07:24:01;16.47;;;3.67;;
3865;SDS011;1948;53.250;10.412;2023-05-16T07:26:28;15.23;;;2.80;;
3865;SDS011;1948;53.250;10.412;2023-05-16T07:28:55;8.83;;;2.63;;
3865;SDS011;1948;53.250;10.412;2023-05-16T07:31:30;13.73;;;2.30;;
3865;SDS011;1948;53.250;10.412;2023-05-16T07:33:57;21.83;;;2.87;;
3865;SDS011;1948;53.250;10.412;2023-05-16T07:36:24;16.83;;;3.50;;
3865;SDS011;1948;53.250;10.412;2023-05-16T07:38:51;20.00;;;2.83;;
3865;SDS011;1948;53.250;10.412;2023-05-16T07:41:18;22.77;;;2.33;;
3865;SDS011;1948;53.250;10.412;2023-05-16T07:43:46;13.13;;;2.70;;
3865;SDS011;1948;53.250;10.412;2023-05-16T07:46:13;10.33;;;2.97;;
3865;SDS011;1948;53.250;10.412;2023-05-16T07:48:43;9.63;;;2.00;;
3865;SDS011;1948;53.250;10.412;2023-05-16T07:51:10;10.60;;;3.50;;
3865;SDS011;1948;53.250;10.412;2023-05-16T07:53:37;31.70;;;2.53;;
3865;SDS011;1948;53.250;10.412;2023-05-16T07:56:05;9.67;;;2.53;;
3865;SDS011;1948;53.250;10.412;2023-05-16T07:58:33;15.90;;;2.60;;
3865;SDS011;1948;53.250;10.412;2023-05-16T08:01:04;12.87;;;2.80;;
3865;SDS011;1948;53.250;10.412;2023-05-16T08:03:31;20.83;;;2.33;;
3865;SDS011;1948;53.250;10.412;2023-05-16T08:05:59;15.03;;;2.80;;
3865;SDS011;1948;53.250;10.412;2023-05-16T08:08:26;10.40;;;2.60;;
3865;SDS011;1948;53.250;10.412;2023-05-16T08:10:56;5.00;;;1.90;;
3865;SDS011;1948;53.250;10.412;2023-05-16T08:13:25;4.20;;;1.70;;
3865;SDS011;1948;53.250;10.412;2023-05-16T08:15:52;15.80;;;2.10;;
3865;SDS011;1948;53.250;10.412;2023-05-16T08:18:24;6.63;;;1.63;;
3865;SDS011;1948;53.250;10.412;2023-05-16T08:20:51;3.70;;;1.83;;
3865;SDS011;1948;53.250;10.412;2023-05-16T08:23:18;4.17;;;1.63;;
3865;SDS011;1948;53.250;10.412;2023-05-16T08:25:50;4.33;;;1.40;;
3865;SDS011;1948;53.250;10.412;2023-05-16T08:28:17;12.77;;;1.60;;
3865;SDS011;1948;53.250;10.412;2023-05-16T08:30:44;14.83;;;2.47;;
3865;SDS011;1948;53.250;10.412;2023-05-16T08:33:13;8.20;;;1.50;;
3865;SDS011;1948;53.250;10.412;2023-05-16T08:35:41;17.33;;;2.10;;
3865;SDS011;1948;53.250;10.412;2023-05-16T08:38:12;7.47;;;2.03;;
3865;SDS011;1948;53.250;10.412;2023-05-16T08:40:39;7.07;;;1.70;;
3865;SDS011;1948;53.250;10.412;2023-05-16T08:43:08;10.63;;;1.73;;
3865;SDS011;1948;53.250;10.412;2023-05-16T08:45:38;3.90;;;1.70;;
3865;SDS011;1948;53.250;10.412;2023-05-16T08:48:09;9.67;;;2.33;;
3865;SDS011;1948;53.250;10.412;2023-05-16T08:50:37;10.47;;;2.13;;
3865;SDS011;1948;53.250;10.412;2023-05-16T08:53:05;6.93;;;2.00;;
3865;SDS011;1948;53.250;10.412;2023-05-16T08:55:35;9.47;;;2.03;;
3865;SDS011;1948;53.250;10.412;2023-05-16T08:58:03;8.20;;;1.93;;
3865;SDS011;1948;53.250;10.412;2023-05-16T09:00:33;5.07;;;1.90;;
3865;SDS011;1948;53.250;10.412;2023-05-16T09:03:01;10.00;;;1.57;;
3865;SDS011;1948;53.250;10.412;2023-05-16T09:05:29;6.63;;;1.40;;
3865;SDS011;1948;53.250;10.412;2023-05-16T09:07:59;7.23;;;1.87;;
3865;SDS011;1948;53.250;10.412;2023-05-16T09:10:28;17.77;;;1.57;;
3865;SDS011;1948;53.250;10.412;2023-05-16T09:12:58;5.80;;;1.80;;
3865;SDS011;1948;53.250;10.412;2023-05-16T09:15:29;8.93;;;2.10;;
3865;SDS011;1948;53.250;10.412;2023-05-16T09:18:01;7.03;;;1.70;;
3865;SDS011;1948;53.250;10.412;2023-05-16T09:20:31;6.17;;;2.10;;
3865;SDS011;1948;53.250;10.412;2023-05-16T09:22:58;12.23;;;2.00;;
3865;SDS011;1948;53.250;10.412;2023-05-16T09:25:27;3.70;;;2.40;;
3865;SDS011;1948;53.250;10.412;2023-05-16T09:27:59;25.60;;;2.50;;
3865;SDS011;1948;53.250;10.412;2023-05-16T09:30:32;30.80;;;2.50;;
3865;SDS011;1948;53.250;10.412;2023-05-16T09:33:00;11.37;;;2.30;;
3865;SDS011;1948;53.250;10.412;2023-05-16T09:35:28;4.30;;;2.10;;
3865;SDS011;1948;53.250;10.412;2023-05-16T09:38:14;3.80;;;1.50;;
3865;SDS011;1948;53.250;10.412;2023-05-16T09:40:47;2.67;;;1.80;;
3865;SDS011;1948;53.250;10.412;2023-05-16T09:43:17;5.20;;;1.77;;
3865;SDS011;1948;53.250;10.412;2023-05-16T09:45:48;4.20;;;2.83;;
3865;SDS011;1948;53.250;10.412;2023-05-16T09:48:18;9.17;;;1.60;;
3865;SDS011;1948;53.250;10.412;2023-05-16T09:50:48;8.87;;;1.97;;
3865;SDS011;1948;53.250;10.412;2023-05-16T09:53:28;16.30;;;1.80;;
3865;SDS011;1948;53.250;10.412;2023-05-16T09:58:30;4.33;;;1.67;;
3865;SDS011;1948;53.250;10.412;2023-05-16T10:00:58;8.23;;;1.90;;
3865;SDS011;1948;53.250;10.412;2023-05-16T10:03:25;4.50;;;1.60;;
3865;SDS011;1948;53.250;10.412;2023-05-16T10:05:53;6.33;;;1.67;;
3865;SDS011;1948;53.250;10.412;2023-05-16T10:08:22;6.30;;;1.63;;
3865;SDS011;1948;53.250;10.412;2023-05-16T10:10:53;5.10;;;1.67;;
3865;SDS011;1948;53.250;10.412;2023-05-16T10:13:23;6.20;;;2.20;;
3865;SDS011;1948;53.250;10.412;2023-05-16T10:15:57;4.67;;;1.87;;
3865;SDS011;1948;53.250;10.412;2023-05-16T10:18:37;3.37;;;1.60;;
3865;SDS011;1948;53.250;10.412;2023-05-16T10:21:12;6.57;;;2.07;;
3865;SDS011;1948;53.250;10.412;2023-05-16T10:23:45;5.50;;;1.87;;
3865;SDS011;1948;53.250;10.412;2023-05-16T10:26:17;4.73;;;1.30;;
3865;SDS011;1948;53.250;10.412;2023-05-16T10:28:49;13.03;;;2.10;;
3865;SDS011;1948;53.250;10.412;2023-05-16T10:31:17;10.80;;;1.73;;
3865;SDS011;1948;53.250;10.412;2023-05-16T10:33:45;5.80;;;1.93;;
3865;SDS011;1948;53.250;10.412;2023-05-16T10:36:13;10.73;;;1.73;;
3865;SDS011;1948;53.250;10.412;2023-05-16T10:38:42;9.03;;;2.20;;
3865;SDS011;1948;53.250;10.412;2023-05-16T10:41:13;6.33;;;2.00;;
3865;SDS011;1948;53.250;10.412;2023-05-16T10:43:43;16.70;;;2.40;;
3865;SDS011;1948;53.250;10.412;2023-05-16T10:46:22;5.93;;;2.27;;
3865;SDS011;1948;53.250;10.412;2023-05-16T10:48:50;7.77;;;2.00;;
3865;SDS011;1948;53.250;10.412;2023-05-16T10:54:07;5.40;;;1.47;;
3865;SDS011;1948;53.250;10.412;2023-05-16T10:56:38;1.70;;;1.60;;
3865;SDS011;1948;53.250;10.412;2023-05-16T10:59:23;12.50;;;1.50;;
3865;SDS011;1948;53.250;10.412;2023-05-16T11:01:52;6.00;;;2.33;;
3865;SDS011;1948;53.250;10.412;2023-05-16T11:04:21;5.13;;;2.10;;
3865;SDS011;1948;53.250;10.412;2023-05-16T11:06:49;8.97;;;1.80;;
3865;SDS011;1948;53.250;10.412;2023-05-16T11:09:22;6.27;;;2.10;;
3865;SDS011;1948;53.250;10.412;2023-05-16T11:11:55;11.50;;;2.97;;
3865;SDS011;1948;53.250;10.412;2023-05-16T11:19:54;10.10;;;1.90;;
3865;SDS011;1948;53.250;10.412;2023-05-16T11:22:29;10.80;;;2.23;;
3865;SDS011;1948;53.250;10.412;2023-05-16T11:25:07;8.60;;;1.90;;
3865;SDS011;1948;53.250;10.412;2023-05-16T11:27:44;2.40;;;1.67;;
3865;SDS011;1948;53.250;10.412;2023-05-16T11:30:16;4.63;;;2.30;;
3865;SDS011;1948;53.250;10.412;2023-05-16T11:32:45;5.97;;;1.63;;
3865;SDS011;1948;53.250;10.412;2023-05-16T11:35:14;3.37;;;1.70;;
3865;SDS011;1948;53.250;10.412;2023-05-16T11:37:43;4.30;;;2.20;;
3865;SDS011;1948;53.250;10.412;2023-05-16T11:40:12;7.53;;;1.73;;
3865;SDS011;1948;53.250;10.412;2023-05-16T11:42:44;10.63;;;1.93;;
3865;SDS011;1948;53.250;10.412;2023-05-16T11:45:20;4.40;;;2.60;;
3865;SDS011;1948;53.250;10.412;2023-05-16T11:47:50;6.40;;;1.80;;
3865;SDS011;1948;53.250;10.412;2023-05-16T11:50:18;6.80;;;1.90;;
3865;SDS011;1948;53.250;10.412;2023-05-16T11:52:50;13.33;;;1.87;;
3865;SDS011;1948;53.250;10.412;2023-05-16T11:55:22;6.70;;;2.33;;
3865;SDS011;1948;53.250;10.412;2023-05-16T11:58:09;8.83;;;2.47;;
3865;SDS011;1948;53.250;10.412;2023-05-16T12:00:43;22.63;;;2.77;;
3865;SDS011;1948;53.250;10.412;2023-05-16T12:03:19;10.27;;;2.10;;
3865;SDS011;1948;53.250;10.412;2023-05-16T12:05:53;7.30;;;2.27;;
3865;SDS011;1948;53.250;10.412;2023-05-16T12:08:24;16.00;;;2.27;;
3865;SDS011;1948;53.250;10.412;2023-05-16T12:10:52;12.70;;;2.50;;
3865;SDS011;1948;53.250;10.412;2023-05-16T12:13:22;6.70;;;2.03;;
3865;SDS011;1948;53.250;10.412;2023-05-16T12:15:53;4.47;;;1.73;;
3865;SDS011;1948;53.250;10.412;2023-05-16T12:18:20;3.23;;;1.93;;
3865;SDS011;1948;53.250;10.412;2023-05-16T12:20:50;4.63;;;1.57;;
3865;SDS011;1948;53.250;10.412;2023-05-16T12:23:17;6.30;;;1.77;;
3865;SDS011;1948;53.250;10.412;2023-05-16T12:25:45;11.80;;;2.30;;
3865;SDS011;1948;53.250;10.412;2023-05-16T12:28:15;1.93;;;1.73;;
3865;SDS011;1948;53.250;10.412;2023-05-16T12:30:45;4.33;;;1.50;;
3865;SDS011;1948;53.250;10.412;2023-05-16T12:33:15;2.27;;;1.67;;
3865;SDS011;1948;53.250;10.412;2023-05-16T12:35:43;3.27;;;1.93;;
3865;SDS011;1948;53.250;10.412;2023-05-16T12:38:13;5.60;;;1.93;;
3865;SDS011;1948;53.250;10.412;2023-05-16T12:40:42;8.87;;;1.87;;
3865;SDS011;1948;53.250;10.412;2023-05-16T12:45:42;5.77;;;2.37;;
3865;SDS011;1948;53.250;10.412;2023-05-16T12:48:20;9.33;;;1.70;;
3865;SDS011;1948;53.250;10.412;2023-05-16T12:51:07;3.20;;;1.60;;
3865;SDS011;1948;53.250;10.412;2023-05-16T12:53:44;9.00;;;2.07;;
3865;SDS011;1948;53.250;10.412;2023-05-16T12:56:31;6.03;;;2.40;;
3865;SDS011;1948;53.250;10.412;2023-05-16T12:58:58;8.33;;;2.60;;
3865;SDS011;1948;53.250;10.412;2023-05-16T13:01:25;6.43;;;2.20;;
3865;SDS011;1948;53.250;10.412;2023-05-16T13:03:52;5.27;;;1.50;;
3865;SDS011;1948;53.250;10.412;2023-05-16T13:06:19;5.40;;;2.00;;
3865;SDS011;1948;53.250;10.412;2023-05-16T13:08:49;4.93;;;1.53;;
3865;SDS011;1948;53.250;10.412;2023-05-16T13:11:18;9.30;;;1.33;;
3865;SDS011;1948;53.250;10.412;2023-05-16T13:13:46;10.67;;;1.70;;
3865;SDS011;1948;53.250;10.412;2023-05-16T13:16:13;4.77;;;1.40;;
3865;SDS011;1948;53.250;10.412;2023-05-16T13:18:41;3.10;;;1.90;;
3865;SDS011;1948;53.250;10.412;2023-05-16T13:21:11;0.87;;;0.87;;
3865;SDS011;1948;53.250;10.412;2023-05-16T13:23:38;1.23;;;1.23;;
3865;SDS011;1948;53.250;10.412;2023-05-16T13:26:05;1.20;;;1.10;;
3865;SDS011;1948;53.250;10.412;2023-05-16T13:28:32;4.63;;;1.90;;
3865;SDS011;1948;53.250;10.412;2023-05-16T13:30:59;5.50;;;3.03;;
3865;SDS011;1948;53.250;10.412;2023-05-16T13:33:29;4.20;;;1.23;;
3865;SDS011;1948;53.250;10.412;2023-05-16T13:35:56;4.80;;;1.43;;
3865;SDS011;1948;53.250;10.412;2023-05-16T13:38:23;6.40;;;1.73;;
3865;SDS011;1948;53.250;10.412;2023-05-16T13:40:53;15.53;;;2.57;;
3865;SDS011;1948;53.250;10.412;2023-05-16T13:43:21;4.77;;;1.60;;
3865;SDS011;1948;53.250;10.412;2023-05-16T13:45:47;7.50;;;1.93;;
3865;SDS011;1948;53.250;10.412;2023-05-16T13:48:15;8.83;;;1.50;;
3865;SDS011;1948;53.250;10.412;2023-05-16T13:50:44;5.20;;;1.40;;
3865;SDS011;1948;53.250;10.412;2023-05-16T13:53:14;1.63;;;1.30;;
3865;SDS011;1948;53.250;10.412;2023-05-16T13:55:41;10.23;;;1.43;;
3865;SDS011;1948;53.250;10.412;2023-05-16T13:58:11;5.37;;;1.70;;
3865;SDS011;1948;53.250;10.412;2023-05-16T14:00:38;4.80;;;1.50;;
3865;SDS011;1948;53.250;10.412;2023-05-16T14:03:11;8.63;;;1.50;;
3865;SDS011;1948;53.250;10.412;2023-05-16T14:05:39;9.50;;;2.03;;
3865;SDS011;1948;53.250;10.412;2023-05-16T14:08:08;8.33;;;1.50;;
3865;SDS011;1948;53.250;10.412;2023-05-16T14:10:39;4.93;;;2.00;;
3865;SDS011;1948;53.250;10.412;2023-05-16T14:13:06;9.93;;;1.70;;
3865;SDS011;1948;53.250;10.412;2023-05-16T14:15:35;12.93;;;2.00;;
3865;SDS011;1948;53.250;10.412;2023-05-16T14:18:05;14.20;;;1.70;;
3865;SDS011;1948;53.250;10.412;2023-05-16T14:20:32;6.53;;;1.60;;
3865;SDS011;1948;53.250;10.412;2023-05-16T14:23:02;9.20;;;1.57;;
3865;SDS011;1948;53.250;10.412;2023-05-16T14:25:29;9.83;;;1.70;;
3865;SDS011;1948;53.250;10.412;2023-05-16T14:27:58;5.70;;;1.30;;
3865;SDS011;1948;53.250;10.412;2023-05-16T14:30:25;13.60;;;1.90;;
3865;SDS011;1948;53.250;10.412;2023-05-16T14:32:53;6.53;;;1.73;;
3865;SDS011;1948;53.250;10.412;2023-05-16T14:35:20;4.40;;;1.50;;
3865;SDS011;1948;53.250;10.412;2023-05-16T14:37:47;3.27;;;1.17;;
3865;SDS011;1948;53.250;10.412;2023-05-16T14:40:17;14.13;;;1.70;;
3865;SDS011;1948;53.250;10.412;2023-05-16T14:42:44;10.40;;;1.50;;
3865;SDS011;1948;53.250;10.412;2023-05-16T14:45:11;8.80;;;5.00;;
3865;SDS011;1948;53.250;10.412;2023-05-16T14:47:41;2.83;;;1.30;;
3865;SDS011;1948;53.250;10.412;2023-05-16T14:50:09;4.53;;;1.50;;
3865;SDS011;1948;53.250;10.412;2023-05-16T14:52:37;7.00;;;2.20;;
3865;SDS011;1948;53.250;10.412;2023-05-16T14:55:06;4.13;;;1.77;;
3865;SDS011;1948;53.250;10.412;2023-05-16T14:57:33;9.63;;;1.63;;
3865;SDS011;1948;53.250;10.412;2023-05-16T15:00:03;4.73;;;1.60;;
3865;SDS011;1948;53.250;10.412;2023-05-16T15:02:32;11.07;;;1.77;;
3865;SDS011;1948;53.250;10.412;2023-05-16T15:04:59;4.57;;;1.47;;
3865;SDS011;1948;53.250;10.412;2023-05-16T15:07:27;3.50;;;1.50;;
3865;SDS011;1948;53.250;10.412;2023-05-16T15:09:54;3.20;;;1.13;;
3865;SDS011;1948;53.250;10.412;2023-05-16T15:12:21;7.90;;;1.50;;
3865;SDS011;1948;53.250;10.412;2023-05-16T15:14:48;8.33;;;1.10;;
3865;SDS011;1948;53.250;10.412;2023-05-16T15:17:15;10.97;;;1.97;;
3865;SDS011;1948;53.250;10.412;2023-05-16T15:19:45;1.07;;;1.00;;
3865;SDS011;1948;53.250;10.412;2023-05-16T15:22:14;2.17;;;1.00;;
3865;SDS011;1948;53.250;10.412;2023-05-16T15:24:41;1.30;;;1.10;;
3865;SDS011;1948;53.250;10.412;2023-05-16T15:27:08;6.43;;;1.10;;
3865;SDS011;1948;53.250;10.412;2023-05-16T15:29:37;3.30;;;1.50;;
3865;SDS011;1948;53.250;10.412;2023-05-16T15:32:04;19.03;;;1.30;;
3865;SDS011;1948;53.250;10.412;2023-05-16T15:34:33;1.57;;;1.40;;
3865;SDS011;1948;53.250;10.412;2023-05-16T15:37:00;1.47;;;0.90;;
3865;SDS011;1948;53.250;10.412;2023-05-16T15:39:30;1.30;;;1.20;;